Weather at San Luis Ixcan Valle Uno Candelaria

Public forecast

Using degrees Celsius for public forecast. Weather courtesy of forecast.io.

Closest aviation weather report (METAR) to San Luis Ixcan Valle Uno Candelaria

Closest report is Huehuetenango Airport, 35.7 nm (66.0 km) SW. Retrieved 2022/07/07 11:00 UTC (31 minutes ago):

MGHT 071100Z 00000KT 9999 OVC015 15/15

Closest aviation forecast (TAF) to San Luis Ixcan Valle Uno Candelaria

Closest forecast is La Aurora Airport, 79.9 nm (147.9 km) SSE. Retrieved 2022/07/07 06:54 UTC (5 hours ago):

TAF TAF MGGT 070500Z 0706/0806 03012KT 9999 SCT016 BKN080 TX26/0720Z TN16/0712Z TEMPO 0706/0716 FEW014 BECMG 0716/0718 SCT018 PROB30 TEMPO 0718/0804 8000 VCTSRA SCT020TCU FEW025CB BECMG 0800/0802 FEW016